Time;durP1;ratioP1;P1;durP2;ratioP2;P2;SDS_P1;SDS_P2;PMS_P1;PMS_P2;Temp;Humidity;BMP_temperature;BMP_pressure;BME280_temperature;BME280_humidity;BME280_pressure;Samples;Min_cycle;Max_cycle;Signal;HPM_P1;HPM_P2
2023/06/26 00:02:01;;;;;;;15.60;9.43;;;22.60;99.90;;;;;;5074563;28;20040;-67
2023/06/26 00:04:27;;;;;;;10.90;9.80;;;22.60;99.90;;;;;;5074377;28;20040;-67
2023/06/26 00:06:52;;;;;;;10.77;9.43;;;22.50;99.90;;;;;;5074222;28;20037;-67
2023/06/26 00:09:18;;;;;;;11.23;8.60;;;22.50;99.90;;;;;;5074649;28;20043;-67
2023/06/26 00:11:43;;;;;;;11.38;9.82;;;22.50;99.90;;;;;;5074096;28;20048;-67
2023/06/26 00:14:09;;;;;;;11.88;9.15;;;22.50;99.90;;;;;;5074442;28;20037;-67
2023/06/26 00:16:35;;;;;;;11.80;9.75;;;22.50;99.90;;;;;;5074247;28;20041;-67
2023/06/26 00:19:01;;;;;;;11.05;9.90;;;22.50;99.90;;;;;;5073835;28;20039;-67
2023/06/26 00:21:27;;;;;;;11.00;8.50;;;22.40;99.90;;;;;;5074040;28;20037;-67
2023/06/26 00:23:52;;;;;;;10.25;8.98;;;22.50;99.90;;;;;;5074334;28;20036;-67
2023/06/26 00:26:18;;;;;;;11.98;9.88;;;22.40;99.90;;;;;;5074168;28;20423;-67
2023/06/26 00:28:43;;;;;;;13.95;10.38;;;22.40;99.90;;;;;;5073895;28;20404;-67
2023/06/26 00:31:09;;;;;;;11.15;9.55;;;22.40;99.90;;;;;;5071952;28;20370;-68
2023/06/26 00:33:34;;;;;;;12.48;10.05;;;22.30;99.90;;;;;;5073824;28;20119;-68
2023/06/26 00:36:00;;;;;;;13.60;9.68;;;22.20;99.90;;;;;;5072706;28;20056;-67
2023/06/26 00:38:25;;;;;;;10.95;9.82;;;22.20;99.90;;;;;;5073655;28;20036;-67
2023/06/26 00:40:51;;;;;;;12.75;10.20;;;22.20;99.90;;;;;;5071949;28;20458;-68
2023/06/26 00:43:16;;;;;;;11.30;9.63;;;22.10;99.90;;;;;;5073883;28;20518;-67
2023/06/26 00:45:42;;;;;;;13.88;10.43;;;22.10;99.90;;;;;;5073464;28;20179;-67
2023/06/26 00:48:11;;;;;;;12.27;10.40;;;22.10;99.90;;;;;;5073212;28;20028;-67
2023/06/26 00:50:37;;;;;;;11.05;9.57;;;22.10;99.90;;;;;;5073197;28;20500;-67
2023/06/26 00:53:03;;;;;;;13.82;11.55;;;22.10;99.90;;;;;;5073776;28;20049;-68
2023/06/26 00:55:29;;;;;;;11.77;9.98;;;22.00;99.90;;;;;;5073709;28;20078;-67
2023/06/26 00:57:55;;;;;;;13.52;11.00;;;22.00;99.90;;;;;;5073263;28;20078;-67
2023/06/26 01:00:21;;;;;;;13.60;11.07;;;21.90;99.90;;;;;;5072962;28;20450;-67
2023/06/26 01:02:47;;;;;;;13.50;11.00;;;21.80;99.90;;;;;;5073350;28;20037;-67
2023/06/26 01:05:20;;;;;;;12.57;10.68;;;21.80;99.90;;;;;;5073547;28;20052;-67
2023/06/26 01:07:49;;;;;;;13.25;11.40;;;21.80;99.90;;;;;;5073192;28;20040;-68
2023/06/26 01:10:15;;;;;;;13.30;11.68;;;21.70;99.90;;;;;;5073006;28;20123;-67
2023/06/26 01:12:41;;;;;;;15.02;11.82;;;21.60;99.90;;;;;;5073405;28;20547;-68
2023/06/26 01:15:07;;;;;;;13.35;11.88;;;21.60;99.90;;;;;;5073120;28;20039;-67
2023/06/26 01:17:34;;;;;;;12.88;11.43;;;21.50;99.90;;;;;;5094494;22;20063;-66
2023/06/26 01:20:01;;;;;;;15.85;12.18;;;21.50;99.90;;;;;;5072689;28;20044;-66
2023/06/26 01:22:56;;;;;;;13.68;12.02;;;21.50;99.90;;;;;;5071853;28;20127;-66
2023/06/26 01:25:38;;;;;;;16.38;12.68;;;21.40;99.90;;;;;;5072944;28;20044;-66
2023/06/26 01:28:05;;;;;;;14.43;12.05;;;21.40;99.90;;;;;;5072345;28;20036;-66
2023/06/26 01:30:32;;;;;;;14.27;12.68;;;21.40;99.90;;;;;;5072817;28;20106;-66
2023/06/26 01:33:00;;;;;;;16.77;13.55;;;21.30;99.90;;;;;;5072360;28;20373;-66
2023/06/26 01:35:27;;;;;;;16.27;12.75;;;21.40;99.90;;;;;;5073158;28;20037;-66
2023/06/26 01:37:52;;;;;;;14.55;12.10;;;21.30;99.90;;;;;;5072260;28;20036;-66
2023/06/26 01:40:18;;;;;;;15.35;13.45;;;21.40;99.90;;;;;;5070801;28;20123;-66
2023/06/26 01:42:44;;;;;;;15.48;13.52;;;21.30;99.90;;;;;;5072887;28;20040;-66
2023/06/26 01:45:26;;;;;;;14.65;12.85;;;21.30;99.90;;;;;;5072779;28;20138;-66
2023/06/26 01:47:53;;;;;;;16.60;13.55;;;21.30;99.90;;;;;;5070962;28;20049;-66
2023/06/26 01:50:26;;;;;;;14.63;12.70;;;21.20;99.90;;;;;;5072087;28;20139;-66
2023/06/26 01:53:19;;;;;;;13.82;12.43;;;21.20;99.90;;;;;;5071434;28;20424;-66
2023/06/26 01:55:53;;;;;;;;;;;21.20;99.90;;;;;;5071164;28;20048;-66
2023/06/26 01:58:22;;;;;;;17.08;13.77;;;21.10;99.90;;;;;;5070704;28;19916;-66
2023/06/26 02:00:48;;;;;;;16.85;13.60;;;21.10;99.90;;;;;;5071814;28;20045;-66
2023/06/26 02:03:13;;;;;;;15.20;13.68;;;21.10;99.90;;;;;;5072496;28;20039;-66
2023/06/26 02:05:39;;;;;;;14.10;12.10;;;21.10;99.90;;;;;;5070972;28;20144;-66
2023/06/26 02:08:05;;;;;;;15.57;12.38;;;21.10;99.90;;;;;;5070697;28;20121;-66
2023/06/26 02:10:31;;;;;;;13.70;12.23;;;21.10;99.90;;;;;;5071765;28;20040;-66
2023/06/26 02:12:56;;;;;;;16.15;12.85;;;21.00;99.90;;;;;;5072118;28;20070;-66
2023/06/26 02:15:22;;;;;;;14.20;12.75;;;21.00;99.90;;;;;;5070996;28;20044;-66
2023/06/26 02:17:48;;;;;;;15.73;13.60;;;20.90;99.90;;;;;;5070283;28;20515;-66
2023/06/26 02:20:15;;;;;;;14.07;12.57;;;21.00;99.90;;;;;;5071790;28;20076;-66
2023/06/26 02:22:41;;;;;;;14.77;11.45;;;21.00;99.90;;;;;;5070713;28;20047;-66
2023/06/26 02:25:06;;;;;;;14.23;12.60;;;21.00;99.90;;;;;;5070627;28;20119;-68
2023/06/26 02:27:32;;;;;;;14.40;12.45;;;21.00;99.90;;;;;;5071484;28;20033;-66
2023/06/26 02:29:58;;;;;;;13.55;12.13;;;21.00;99.90;;;;;;5071355;28;20039;-66
2023/06/26 02:32:23;;;;;;;14.50;11.75;;;21.00;99.90;;;;;;5072035;28;20500;-66
2023/06/26 02:34:51;;;;;;;18.05;12.63;;;21.00;99.90;;;;;;5070482;28;20389;-66
2023/06/26 02:37:17;;;;;;;15.50;12.55;;;21.00;99.90;;;;;;5071523;28;20051;-68
2023/06/26 02:39:43;;;;;;;15.07;11.95;;;20.90;99.90;;;;;;5071298;28;20036;-69
2023/06/26 02:42:08;;;;;;;14.50;12.98;;;20.90;99.90;;;;;;5070415;28;20040;-66
2023/06/26 02:44:34;;;;;;;14.07;12.30;;;20.90;99.90;;;;;;5070721;28;20036;-66
2023/06/26 02:46:59;;;;;;;14.57;11.77;;;20.80;99.90;;;;;;5071498;28;20044;-66
2023/06/26 02:49:25;;;;;;;15.27;12.00;;;20.80;99.90;;;;;;5071607;28;20071;-65
2023/06/26 02:51:50;;;;;;;15.18;13.30;;;20.70;99.90;;;;;;5071442;28;20044;-66
2023/06/26 02:54:16;;;;;;;13.77;12.23;;;20.70;99.90;;;;;;5070520;28;20047;-66
2023/06/26 02:56:42;;;;;;;12.98;11.57;;;20.70;99.90;;;;;;5071221;28;20040;-66
2023/06/26 02:59:08;;;;;;;15.20;12.05;;;20.60;99.90;;;;;;5071241;28;20044;-66
2023/06/26 03:01:33;;;;;;;14.93;11.95;;;20.60;99.90;;;;;;5070912;28;20039;-66
2023/06/26 03:04:00;;;;;;;12.68;11.38;;;20.60;99.90;;;;;;5071317;28;20043;-66
2023/06/26 03:06:26;;;;;;;13.07;11.73;;;20.50;99.90;;;;;;5071489;28;20068;-65
2023/06/26 03:08:53;;;;;;;14.68;11.77;;;20.40;99.90;;;;;;5070935;28;20322;-66
2023/06/26 03:11:19;;;;;;;12.80;11.50;;;20.50;99.90;;;;;;5071127;28;20033;-66
2023/06/26 03:13:44;;;;;;;12.75;11.32;;;20.50;99.90;;;;;;5071146;28;20523;-66
2023/06/26 03:16:10;;;;;;;13.82;11.98;;;20.50;99.90;;;;;;5071455;28;20124;-66
2023/06/26 03:18:36;;;;;;;13.73;11.57;;;20.50;99.90;;;;;;5069533;28;20053;-66
2023/06/26 03:21:01;;;;;;;13.13;11.60;;;20.60;99.90;;;;;;5070889;28;20041;-66
2023/06/26 03:23:27;;;;;;;13.90;11.52;;;20.60;99.90;;;;;;5071334;28;20458;-66
2023/06/26 03:25:53;;;;;;;12.07;10.80;;;20.60;99.90;;;;;;5071159;28;20036;-66
2023/06/26 03:28:18;;;;;;;14.57;11.80;;;20.50;99.90;;;;;;5069482;28;20468;-66
2023/06/26 03:30:44;;;;;;;13.05;10.40;;;20.50;99.90;;;;;;5071025;28;20083;-66
2023/06/26 03:33:10;;;;;;;13.20;10.55;;;20.50;99.90;;;;;;5071291;28;20037;-65
2023/06/26 03:35:35;;;;;;;14.00;11.13;;;20.50;99.90;;;;;;5070137;28;20106;-66
2023/06/26 03:38:04;;;;;;;12.05;10.73;;;20.60;99.90;;;;;;5069440;28;20526;-66
2023/06/26 03:40:29;;;;;;;13.90;10.90;;;20.60;99.90;;;;;;5070584;28;20526;-66
2023/06/26 03:42:55;;;;;;;11.35;9.93;;;20.70;99.90;;;;;;5069756;28;20040;-66
2023/06/26 03:45:21;;;;;;;11.38;9.48;;;20.80;99.90;;;;;;5069832;28;20044;-69
2023/06/26 03:47:49;;;;;;;14.82;11.50;;;20.80;99.90;;;;;;5070796;28;20043;-68
2023/06/26 03:50:16;;;;;;;11.63;10.40;;;20.80;99.90;;;;;;5070725;28;20090;-68
2023/06/26 03:52:42;;;;;;;13.70;10.27;;;20.90;99.90;;;;;;5071045;28;20123;-68
2023/06/26 03:55:08;;;;;;;11.80;10.15;;;20.90;99.90;;;;;;5072324;28;20178;-68
2023/06/26 03:57:33;;;;;;;12.55;9.63;;;20.90;99.90;;;;;;5074171;28;20042;-66
2023/06/26 03:59:59;;;;;;;12.38;10.63;;;21.00;99.90;;;;;;5056210;28;20044;-69
2023/06/26 04:02:25;;;;;;;13.50;10.63;;;21.00;99.90;;;;;;5074808;28;20380;-68
2023/06/26 04:04:51;;;;;;;11.95;10.25;;;21.10;99.90;;;;;;5074500;28;20085;-66
2023/06/26 04:07:17;;;;;;;11.20;9.93;;;21.10;99.90;;;;;;5073917;28;20042;-65
2023/06/26 04:09:43;;;;;;;10.82;9.18;;;21.30;99.90;;;;;;5072733;28;20123;-66
2023/06/26 04:12:09;;;;;;;11.27;10.07;;;21.30;99.90;;;;;;5074222;28;20045;-66
2023/06/26 04:14:34;;;;;;;11.40;9.93;;;21.30;99.90;;;;;;5074489;28;20042;-66
2023/06/26 04:17:03;;;;;;;12.35;9.45;;;21.40;99.90;;;;;;5072453;28;20055;-66
2023/06/26 04:19:29;;;;;;;12.07;9.50;;;21.40;99.90;;;;;;5074081;28;20119;-66
2023/06/26 04:21:54;;;;;;;11.15;9.75;;;21.40;99.90;;;;;;5074063;28;20073;-66
2023/06/26 04:24:20;;;;;;;11.68;9.25;;;21.40;99.90;;;;;;5074128;28;20032;-66
2023/06/26 04:26:45;;;;;;;12.50;9.73;;;21.50;99.90;;;;;;5073663;28;20041;-66
2023/06/26 04:29:11;;;;;;;10.55;9.43;;;21.50;99.90;;;;;;5074157;28;20090;-66
2023/06/26 04:31:37;;;;;;;12.73;9.40;;;21.50;99.90;;;;;;5073595;28;20040;-66
2023/06/26 04:34:03;;;;;;;11.80;9.07;;;21.50;99.90;;;;;;5072908;28;20076;-66
2023/06/26 04:36:29;;;;;;;12.80;10.10;;;21.50;99.90;;;;;;5073897;28;20064;-66
2023/06/26 04:38:55;;;;;;;11.80;9.10;;;21.70;99.90;;;;;;5073469;28;20090;-66
2023/06/26 04:41:21;;;;;;;11.98;8.95;;;21.70;99.90;;;;;;5073387;28;20036;-66
2023/06/26 04:43:47;;;;;;;12.18;9.05;;;21.70;99.90;;;;;;5072749;28;20044;-66
2023/06/26 04:46:12;;;;;;;11.48;9.18;;;21.70;99.90;;;;;;5074031;28;20519;-66
2023/06/26 04:48:38;;;;;;;12.18;8.73;;;21.80;99.90;;;;;;5073487;28;20446;-66
2023/06/26 04:51:03;;;;;;;10.32;8.57;;;21.80;99.90;;;;;;5073285;28;20041;-66
2023/06/26 04:53:29;;;;;;;9.88;8.30;;;22.00;99.90;;;;;;5073607;28;20097;-66
2023/06/26 04:55:54;;;;;;;10.52;9.23;;;21.90;99.90;;;;;;5073483;28;20399;-66
2023/06/26 04:58:20;;;;;;;12.10;9.10;;;22.00;99.90;;;;;;5073429;28;20082;-66
2023/06/26 05:00:46;;;;;;;13.20;8.55;;;22.00;99.90;;;;;;5073202;28;20049;-67
2023/06/26 05:03:13;;;;;;;14.85;7.55;;;22.10;99.90;;;;;;5073417;28;20177;-66
2023/06/26 05:05:39;;;;;;;8.75;7.32;;;22.20;99.90;;;;;;5072076;28;20381;-67
2023/06/26 05:08:21;;;;;;;12.60;7.57;;;22.20;99.90;;;;;;5070975;28;20047;-67
2023/06/26 05:10:47;;;;;;;13.50;7.95;;;22.30;99.90;;;;;;5073126;28;20040;-66
2023/06/26 05:13:15;;;;;;;15.27;7.45;;;22.50;99.90;;;;;;5073466;28;20404;-66
2023/06/26 05:15:42;;;;;;;15.48;7.30;;;22.60;99.90;;;;;;5073362;28;20404;-66
2023/06/26 05:18:07;;;;;;;9.68;6.95;;;22.50;99.90;;;;;;5072635;28;20058;-67
2023/06/26 05:20:34;;;;;;;10.23;6.63;;;22.40;99.90;;;;;;5072769;28;20119;-66
2023/06/26 05:23:01;;;;;;;9.75;7.03;;;22.30;99.90;;;;;;5071750;28;20128;-69
2023/06/26 05:25:29;;;;;;;12.32;7.68;;;22.20;99.90;;;;;;5071731;28;20049;-67
2023/06/26 05:27:55;;;;;;;16.85;8.57;;;22.10;99.90;;;;;;5072897;28;20044;-66
2023/06/26 05:30:21;;;;;;;10.38;8.50;;;22.00;99.90;;;;;;5072684;28;20090;-66
2023/06/26 05:32:48;;;;;;;11.25;8.13;;;21.90;99.90;;;;;;5072876;28;20450;-68
2023/06/26 05:35:14;;;;;;;14.02;8.63;;;21.80;99.90;;;;;;5071524;28;20062;-66
2023/06/26 05:37:41;;;;;;;18.48;9.35;;;21.70;99.90;;;;;;5072182;28;20040;-70
2023/06/26 05:40:08;;;;;;;14.30;8.52;;;21.70;99.90;;;;;;5072571;28;20115;-70
2023/06/26 05:42:34;;;;;;;16.35;9.30;;;21.60;99.90;;;;;;5054870;28;20040;-70
2023/06/26 05:45:00;;;;;;;18.10;9.30;;;21.60;99.90;;;;;;5071098;28;20045;-70
2023/06/26 05:47:25;;;;;;;15.20;9.77;;;21.50;99.90;;;;;;5072217;28;20037;-69
2023/06/26 05:49:51;;;;;;;20.98;10.23;;;21.40;99.90;;;;;;5067933;28;20041;-70
2023/06/26 05:52:17;;;;;;;15.35;9.32;;;21.10;99.90;;;;;;5066485;28;20040;-70
2023/06/26 05:54:43;;;;;;;15.98;9.98;;;21.00;99.90;;;;;;5072613;28;20043;-70
2023/06/26 05:57:09;;;;;;;20.90;10.43;;;20.90;99.90;;;;;;5072269;28;20033;-70
2023/06/26 05:59:39;;;;;;;13.65;9.85;;;20.70;99.90;;;;;;5070652;28;20041;-70
2023/06/26 06:02:04;;;;;;;15.35;8.55;;;20.60;99.90;;;;;;5072615;28;20040;-70
2023/06/26 06:04:30;;;;;;;11.70;7.03;;;20.70;99.90;;;;;;5070936;28;20523;-69
2023/06/26 06:06:55;;;;;;;14.15;7.82;;;20.40;99.90;;;;;;5070515;28;20060;-70
2023/06/26 06:09:21;;;;;;;14.35;6.93;;;20.30;99.90;;;;;;5072020;28;20423;-71
2023/06/26 06:11:47;;;;;;;10.60;6.50;;;20.30;99.90;;;;;;5060033;28;20072;-70
2023/06/26 06:14:12;;;;;;;12.13;6.07;;;20.20;99.90;;;;;;5062590;28;20033;-70
2023/06/26 06:16:38;;;;;;;12.93;5.97;;;20.30;99.90;;;;;;5060457;28;20033;-70
2023/06/26 06:19:06;;;;;;;12.30;6.10;;;20.10;99.90;;;;;;5061331;28;20052;-70
2023/06/26 06:21:32;;;;;;;13.93;5.68;;;20.20;99.90;;;;;;5051806;28;20044;-70
2023/06/26 06:23:57;;;;;;;15.02;5.72;;;20.30;99.90;;;;;;5050787;28;20041;-70
2023/06/26 06:26:23;;;;;;;13.95;5.43;;;20.70;99.90;;;;;;5050659;28;20041;-70
2023/06/26 06:28:49;;;;;;;12.15;5.10;;;20.90;99.90;;;;;;5050381;28;20073;-70
2023/06/26 06:31:14;;;;;;;13.40;5.13;;;21.20;99.90;;;;;;5050445;28;20187;-70
2023/06/26 06:33:40;;;;;;;13.48;4.97;;;21.20;99.90;;;;;;5050414;28;20516;-70
2023/06/26 06:36:05;;;;;;;14.48;4.70;;;21.10;99.90;;;;;;5052010;28;20507;-70
2023/06/26 06:38:31;;;;;;;11.73;4.25;;;21.20;99.90;;;;;;5050064;28;20036;-70
2023/06/26 06:40:57;;;;;;;14.27;4.30;;;21.60;99.90;;;;;;5051396;28;20041;-70
2023/06/26 06:43:22;;;;;;;9.77;3.33;;;21.80;99.90;;;;;;5051781;28;20445;-70
2023/06/26 06:45:48;;;;;;;10.25;3.78;;;21.90;99.90;;;;;;5050626;28;20520;-70
2023/06/26 06:48:14;;;;;;;13.40;4.20;;;22.00;99.90;;;;;;5051190;28;20063;-70
2023/06/26 06:50:39;;;;;;;9.77;3.78;;;21.80;99.90;;;;;;5051788;28;20089;-70
2023/06/26 06:53:05;;;;;;;10.32;3.70;;;21.70;99.90;;;;;;5068653;28;20133;-72
2023/06/26 06:55:30;;;;;;;9.52;3.55;;;22.00;99.90;;;;;;5070423;28;20051;-73
2023/06/26 06:57:56;;;;;;;10.20;3.13;;;22.20;99.90;;;;;;5052699;28;20068;-74
2023/06/26 07:00:21;;;;;;;11.27;3.20;;;22.60;99.90;;;;;;5069927;28;20028;-74
2023/06/26 07:02:47;;;;;;;13.27;3.22;;;22.70;99.90;;;;;;5068950;28;20567;-74
2023/06/26 07:05:13;;;;;;;13.25;3.47;;;22.80;99.90;;;;;;5070259;28;20040;-74
2023/06/26 07:07:39;;;;;;;8.07;2.47;;;22.80;99.90;;;;;;5069553;28;20040;-73
2023/06/26 07:10:08;;;;;;;8.45;2.72;;;22.70;99.90;;;;;;5069703;28;20452;-73
2023/06/26 07:12:34;;;;;;;7.25;2.88;;;23.00;99.90;;;;;;5070379;28;20128;-74
2023/06/26 07:15:01;;;;;;;10.98;2.97;;;22.90;99.90;;;;;;5070130;28;20531;-74
2023/06/26 07:17:26;;;;;;;8.45;2.50;;;23.20;99.90;;;;;;5069823;28;20036;-74
2023/06/26 07:19:52;;;;;;;6.53;2.30;;;23.20;99.90;;;;;;5070931;28;20203;-74
2023/06/26 07:22:20;;;;;;;5.70;2.22;;;23.00;99.90;;;;;;5071756;28;20492;-74
2023/06/26 07:24:46;;;;;;;8.88;2.45;;;23.30;99.90;;;;;;5070541;28;20442;-74
2023/06/26 07:27:12;;;;;;;7.03;2.17;;;23.50;99.90;;;;;;5071063;28;20040;-74
2023/06/26 07:29:37;;;;;;;6.85;2.15;;;23.70;99.90;;;;;;5070406;28;20492;-73
2023/06/26 07:32:03;;;;;;;9.43;2.28;;;23.80;99.90;;;;;;5073923;28;20492;-74
2023/06/26 07:34:28;;;;;;;6.85;2.17;;;24.00;99.90;;;;;;5073999;28;20131;-72
2023/06/26 07:36:54;;;;;;;5.78;1.92;;;24.20;99.90;;;;;;5074853;28;20361;-71
2023/06/26 07:39:20;;;;;;;4.78;1.70;;;24.40;99.90;;;;;;5075039;28;20033;-71
2023/06/26 07:41:45;;;;;;;5.22;1.95;;;24.30;99.90;;;;;;5074673;28;20170;-71
2023/06/26 07:44:11;;;;;;;8.15;2.22;;;24.50;99.60;;;;;;5074938;28;20072;-71
2023/06/26 07:46:36;;;;;;;5.82;1.73;;;24.40;99.20;;;;;;5073777;28;20040;-72
2023/06/26 07:49:02;;;;;;;6.40;1.65;;;24.50;98.40;;;;;;5074868;28;20044;-71
2023/06/26 07:51:27;;;;;;;5.50;1.92;;;24.30;98.90;;;;;;5074628;28;20522;-71
2023/06/26 07:53:53;;;;;;;8.68;1.95;;;24.50;98.60;;;;;;5074611;28;20044;-71
2023/06/26 07:56:18;;;;;;;7.18;2.05;;;24.70;98.30;;;;;;5073531;28;20044;-71
2023/06/26 07:58:44;;;;;;;6.20;2.35;;;24.90;97.70;;;;;;5073021;28;20036;-71
2023/06/26 08:01:09;;;;;;;4.68;1.75;;;24.70;98.10;;;;;;5072824;28;20040;-71
2023/06/26 08:03:35;;;;;;;6.25;1.88;;;24.50;98.10;;;;;;5073275;28;20041;-71
2023/06/26 08:06:01;;;;;;;8.50;2.03;;;24.50;97.60;;;;;;5073581;28;20044;-72
2023/06/26 08:08:26;;;;;;;8.80;2.00;;;24.70;97.40;;;;;;5072958;28;20071;-72
2023/06/26 08:10:52;;;;;;;5.78;1.60;;;24.30;95.90;;;;;;5072862;28;20063;-72
2023/06/26 08:13:17;;;;;;;3.63;1.40;;;24.00;96.70;;;;;;5072978;28;20127;-74
2023/06/26 08:15:43;;;;;;;4.93;1.60;;;23.90;97.50;;;;;;5073159;28;20049;-74
2023/06/26 08:18:08;;;;;;;4.45;1.38;;;24.20;97.00;;;;;;5073987;28;20040;-74
2023/06/26 08:20:36;;;;;;;6.82;1.48;;;24.70;96.70;;;;;;5073922;28;20469;-74
2023/06/26 08:23:03;;;;;;;5.28;1.35;;;24.50;96.40;;;;;;5073245;28;20067;-73
2023/06/26 08:25:28;;;;;;;7.07;1.67;;;24.40;96.10;;;;;;5073004;28;20056;-73
2023/06/26 08:27:55;;;;;;;5.88;1.48;;;24.20;95.70;;;;;;5072524;28;20048;-74
2023/06/26 08:30:21;;;;;;;3.83;1.40;;;24.30;95.90;;;;;;5072597;28;20407;-74
2023/06/26 08:32:46;;;;;;;4.47;1.33;;;24.50;95.50;;;;;;5074162;28;20036;-74
2023/06/26 08:35:12;;;;;;;4.93;1.50;;;24.30;96.00;;;;;;5074299;28;20117;-74
2023/06/26 08:37:38;;;;;;;3.60;1.15;;;24.00;95.90;;;;;;5072655;28;20116;-73
2023/06/26 08:40:04;;;;;;;9.85;1.70;;;23.70;96.40;;;;;;5072304;28;20518;-73
2023/06/26 08:42:30;;;;;;;6.32;1.60;;;23.70;96.90;;;;;;5072579;28;20033;-71
2023/06/26 08:44:56;;;;;;;5.55;1.70;;;23.90;96.40;;;;;;5073731;28;20039;-74
2023/06/26 08:47:22;;;;;;;6.45;1.50;;;24.00;96.00;;;;;;5072485;28;20037;-73
2023/06/26 08:50:17;;;;;;;4.82;1.30;;;24.30;95.20;;;;;;5072248;28;20051;-74
2023/06/26 08:52:45;;;;;;;3.85;1.42;;;24.80;94.60;;;;;;5069750;28;20136;-72
2023/06/26 08:55:15;;;;;;;3.90;1.50;;;24.80;94.90;;;;;;5072521;28;20041;-72
2023/06/26 08:57:40;;;;;;;5.55;1.75;;;24.70;95.50;;;;;;5072078;28;20063;-72
2023/06/26 09:00:08;;;;;;;6.60;2.40;;;24.50;95.70;;;;;;5072142;28;20041;-72
2023/06/26 09:02:37;;;;;;;5.28;1.60;;;24.70;94.80;;;;;;5072413;28;20040;-72
2023/06/26 09:05:03;;;;;;;5.68;1.83;;;24.90;95.30;;;;;;5073594;28;20038;-72
2023/06/26 09:07:29;;;;;;;7.38;1.45;;;24.70;94.20;;;;;;5071790;28;20040;-73
2023/06/26 09:09:55;;;;;;;4.72;1.98;;;24.30;94.20;;;;;;5073015;28;20048;-72
2023/06/26 09:12:21;;;;;;;5.05;1.70;;;23.80;95.10;;;;;;5072339;28;20094;-73
2023/06/26 09:14:47;;;;;;;4.30;1.60;;;23.90;95.80;;;;;;5072385;28;20093;-73
2023/06/26 09:17:13;;;;;;;5.85;1.35;;;24.10;96.60;;;;;;5071812;28;20051;-72
2023/06/26 09:19:39;;;;;;;4.28;1.50;;;24.40;96.60;;;;;;5072940;28;20037;-72
2023/06/26 09:22:10;;;;;;;3.78;1.55;;;24.60;95.60;;;;;;5072208;28;20399;-72
2023/06/26 09:24:36;;;;;;;5.00;1.70;;;24.50;94.40;;;;;;5055160;28;20082;-72
2023/06/26 09:27:02;;;;;;;4.13;1.95;;;24.10;94.90;;;;;;5071451;28;20041;-72
2023/06/26 09:29:29;;;;;;;6.13;1.95;;;24.50;94.70;;;;;;5071939;28;20051;-72
2023/06/26 09:31:56;;;;;;;4.43;2.05;;;24.70;94.30;;;;;;5071495;28;20500;-72
2023/06/26 09:34:22;;;;;;;7.68;1.77;;;24.80;93.60;;;;;;5071544;28;20094;-73
2023/06/26 09:36:49;;;;;;;6.28;2.50;;;24.90;94.00;;;;;;5071604;28;20072;-73
2023/06/26 09:39:15;;;;;;;5.18;2.35;;;24.90;93.20;;;;;;5071356;28;20129;-73
2023/06/26 09:41:44;;;;;;;4.40;1.63;;;24.50;92.90;;;;;;5071367;28;20466;-73
2023/06/26 09:44:14;;;;;;;12.90;2.92;;;24.30;93.80;;;;;;5054819;28;20033;-73
2023/06/26 09:46:40;;;;;;;4.53;1.67;;;24.20;94.10;;;;;;5071135;28;20153;-73
2023/06/26 09:49:08;;;;;;;2.10;1.33;;;23.90;93.90;;;;;;5071303;28;20123;-73
2023/06/26 09:51:36;;;;;;;3.55;1.83;;;23.90;94.10;;;;;;5071126;28;20068;-73
2023/06/26 09:54:03;;;;;;;4.07;1.70;;;23.60;94.00;;;;;;5070950;28;20040;-72
2023/06/26 09:56:29;;;;;;;4.05;1.65;;;23.30;93.50;;;;;;5071571;28;20032;-73
2023/06/26 09:58:57;;;;;;;4.20;1.70;;;23.30;94.10;;;;;;5071027;28;20135;-73
2023/06/26 10:01:26;;;;;;;5.68;1.85;;;23.10;94.50;;;;;;5054160;28;20048;-72
2023/06/26 10:03:53;;;;;;;5.63;1.92;;;22.90;94.50;;;;;;5054464;28;20079;-73
2023/06/26 10:06:28;;;;;;;2.70;1.35;;;23.00;95.40;;;;;;5070952;28;20086;-73
2023/06/26 10:08:56;;;;;;;5.40;2.20;;;22.90;95.30;;;;;;5070723;28;20040;-73
2023/06/26 10:11:22;;;;;;;5.78;1.58;;;23.20;95.10;;;;;;5070552;28;20040;-73
2023/06/26 10:13:51;;;;;;;4.57;2.00;;;23.50;95.20;;;;;;5054255;28;20033;-73
2023/06/26 10:16:23;;;;;;;4.88;1.80;;;23.70;94.60;;;;;;5071481;28;20400;-75
2023/06/26 10:18:52;;;;;;;;;;;23.80;94.00;;;;;;5070959;28;20033;-73
2023/06/26 10:21:20;;;;;;;4.57;2.20;;;23.70;92.40;;;;;;5064793;28;19920;-74
2023/06/26 10:23:46;;;;;;;9.65;2.08;;;23.80;91.70;;;;;;5070751;28;20111;-75
2023/06/26 10:26:13;;;;;;;5.68;2.33;;;23.70;92.00;;;;;;5054120;28;20158;-74
2023/06/26 10:28:40;;;;;;;8.45;2.38;;;23.60;91.60;;;;;;5070395;28;20500;-74
2023/06/26 10:31:07;;;;;;;6.93;2.58;;;23.70;91.70;;;;;;5070328;28;20049;-74
2023/06/26 10:33:34;;;;;;;5.00;2.35;;;23.90;92.00;;;;;;5070583;28;20560;-74
2023/06/26 10:36:18;;;;;;;5.85;2.20;;;24.10;91.70;;;;;;5070959;28;20036;-75
2023/06/26 10:39:06;;;;;;;5.55;2.08;;;24.30;91.10;;;;;;5070544;28;20067;-74
2023/06/26 10:41:41;;;;;;;4.53;2.55;;;24.40;85.40;;;;;;5070195;28;20046;-75
2023/06/26 10:44:11;;;;;;;4.03;1.80;;;24.50;85.30;;;;;;5054663;28;20048;-74
2023/06/26 10:46:53;;;;;;;6.07;1.95;;;24.60;84.10;;;;;;5072372;28;20126;-74
2023/06/26 10:49:20;;;;;;;3.93;2.17;;;24.60;83.70;;;;;;5071083;28;20036;-74
2023/06/26 10:51:48;;;;;;;2.67;1.73;;;24.70;82.20;;;;;;5070857;28;20032;-74
2023/06/26 10:54:19;;;;;;;3.60;1.60;;;24.60;81.60;;;;;;5054488;28;20399;-74
2023/06/26 10:56:48;;;;;;;6.38;1.88;;;24.50;79.90;;;;;;5070637;28;20446;-74
2023/06/26 10:59:15;;;;;;;4.07;2.20;;;24.60;80.20;;;;;;5053660;28;20044;-74
2023/06/26 11:01:45;;;;;;;4.60;1.90;;;24.60;81.90;;;;;;5053248;28;20044;-75
2023/06/26 11:04:11;;;;;;;7.78;2.35;;;24.50;77.90;;;;;;5069757;28;20097;-74
2023/06/26 11:06:38;;;;;;;4.47;2.15;;;24.40;77.00;;;;;;5070683;28;20052;-74
2023/06/26 11:09:04;;;;;;;5.63;2.20;;;24.30;77.50;;;;;;5070387;28;20041;-74
2023/06/26 11:11:52;;;;;;;4.55;2.15;;;24.00;79.90;;;;;;5053353;28;20047;-74
2023/06/26 11:14:22;;;;;;;3.08;2.22;;;23.90;84.80;;;;;;5070375;28;20044;-74
2023/06/26 11:16:49;;;;;;;5.55;2.10;;;24.10;85.20;;;;;;5061373;28;20037;-74
2023/06/26 11:19:16;;;;;;;6.15;2.03;;;24.00;85.30;;;;;;5058707;28;20179;-74
2023/06/26 11:21:42;;;;;;;3.05;1.83;;;23.80;83.50;;;;;;5060009;28;20044;-74
2023/06/26 11:24:11;;;;;;;4.70;1.60;;;23.80;83.00;;;;;;5033583;28;20071;-74
2023/06/26 11:26:44;;;;;;;3.97;1.30;;;23.80;83.90;;;;;;5050344;28;20047;-74
2023/06/26 11:29:11;;;;;;;7.32;2.17;;;23.80;82.90;;;;;;5050331;28;20091;-74
2023/06/26 11:31:39;;;;;;;2.83;1.52;;;23.70;81.70;;;;;;5049598;28;20037;-74
2023/06/26 11:34:08;;;;;;;4.22;1.50;;;23.70;78.90;;;;;;5050072;28;20056;-74
2023/06/26 11:36:36;;;;;;;2.80;1.55;;;23.80;78.80;;;;;;5050194;28;20458;-74
2023/06/26 11:39:05;;;;;;;4.18;1.38;;;24.00;80.00;;;;;;5032987;28;20041;-74
2023/06/26 11:41:32;;;;;;;3.13;1.30;;;24.10;78.40;;;;;;5032829;28;20124;-74
2023/06/26 11:44:05;;;;;;;4.55;1.38;;;24.30;77.40;;;;;;5049857;28;20045;-74
2023/06/26 11:46:31;;;;;;;6.32;1.63;;;24.40;75.70;;;;;;5050142;28;20522;-74
2023/06/26 11:48:57;;;;;;;5.18;1.40;;;24.40;78.50;;;;;;5049981;28;20434;-75
2023/06/26 11:51:23;;;;;;;3.28;1.05;;;24.30;73.10;;;;;;5032885;28;20040;-74
2023/06/26 11:53:49;;;;;;;6.75;1.48;;;24.30;72.70;;;;;;5033176;28;20098;-73
2023/06/26 11:56:16;;;;;;;5.03;1.40;;;24.10;75.10;;;;;;5051103;28;20095;-74
2023/06/26 11:59:03;;;;;;;6.68;1.23;;;24.00;77.00;;;;;;5049915;28;20523;-74
2023/06/26 12:01:45;;;;;;;2.00;0.95;;;24.00;76.00;;;;;;5058881;28;20112;-74
2023/06/26 12:04:14;;;;;;;5.97;0.80;;;23.80;75.50;;;;;;5049994;28;20400;-74
2023/06/26 12:06:42;;;;;;;2.13;0.88;;;23.60;72.50;;;;;;5049813;28;20116;-74
2023/06/26 12:09:10;;;;;;;2.85;1.10;;;23.70;69.80;;;;;;5049754;28;20048;-73
2023/06/26 12:11:41;;;;;;;3.85;1.15;;;23.80;69.80;;;;;;5034623;28;20396;-74
2023/06/26 12:14:07;;;;;;;8.02;2.20;;;24.00;71.10;;;;;;5058139;28;20059;-74
2023/06/26 12:16:34;;;;;;;77.55;6.75;;;24.00;72.10;;;;;;5071756;28;20071;-73
2023/06/26 12:19:04;;;;;;;5.25;0.73;;;24.10;74.50;;;;;;5056296;28;20036;-76
2023/06/26 12:21:44;;;;;;;4.90;0.95;;;24.20;72.60;;;;;;5072890;28;20040;-73
2023/06/26 12:24:14;;;;;;;2.97;1.10;;;24.30;70.80;;;;;;5056360;28;20125;-74
2023/06/26 12:26:43;;;;;;;4.63;1.00;;;24.10;70.80;;;;;;5072769;28;20040;-73
2023/06/26 12:29:14;;;;;;;5.38;1.00;;;24.10;70.60;;;;;;5072978;28;20407;-73
2023/06/26 12:31:44;;;;;;;2.97;1.23;;;23.90;70.10;;;;;;5072863;28;20059;-74
2023/06/26 12:34:13;;;;;;;4.25;1.52;;;24.00;73.00;;;;;;5073017;28;20428;-74
2023/06/26 12:36:48;;;;;;;2.88;0.82;;;23.90;72.20;;;;;;5056525;28;20040;-74
2023/06/26 12:39:16;;;;;;;4.68;0.95;;;23.90;74.10;;;;;;5072786;28;20033;-74